Time;durP1;ratioP1;P1;durP2;ratioP2;P2;SDS_P1;SDS_P2;PMS_P1;PMS_P2;Temp;Humidity;BMP_temperature;BMP_pressure;BME280_temperature;BME280_humidity;BME280_pressure;Samples;Min_cycle;Max_cycle;Signal;HPM_P1;HPM_P2
2020/12/04 00:02:09;;;;;;;3.67;1.30;;;12.60;99.90;;;;;;5131473;27;20031;-73
2020/12/04 00:04:35;;;;;;;5.53;1.65;;;12.20;99.90;;;;;;5132971;27;20096;-72
2020/12/04 00:07:02;;;;;;;3.17;1.55;;;12.00;99.90;;;;;;5131835;27;20475;-71
2020/12/04 00:09:27;;;;;;;3.20;1.60;;;11.90;99.90;;;;;;5132117;27;20463;-70
2020/12/04 00:11:53;;;;;;;3.00;1.25;;;11.90;99.90;;;;;;5132286;27;20023;-71
2020/12/04 00:14:19;;;;;;;5.30;1.67;;;11.90;99.90;;;;;;5131152;27;20027;-72
2020/12/04 00:16:45;;;;;;;2.28;1.50;;;11.80;99.90;;;;;;5132626;27;20547;-71
2020/12/04 00:19:11;;;;;;;2.42;1.50;;;11.70;99.90;;;;;;5131465;27;20065;-72
2020/12/04 00:21:36;;;;;;;4.78;1.30;;;11.70;99.90;;;;;;5131953;27;20071;-72
2020/12/04 00:24:02;;;;;;;2.60;1.30;;;12.00;99.90;;;;;;5132464;27;20102;-71
2020/12/04 00:26:28;;;;;;;2.40;1.42;;;12.00;99.90;;;;;;5131467;27;20027;-72
2020/12/04 00:28:54;;;;;;;1.80;1.15;;;12.00;99.90;;;;;;5129940;27;20023;-70
2020/12/04 00:31:19;;;;;;;3.20;1.40;;;11.90;99.90;;;;;;5132065;27;20055;-71
2020/12/04 00:33:45;;;;;;;2.03;1.25;;;11.90;99.90;;;;;;5130655;27;20073;-72
2020/12/04 00:36:11;;;;;;;1.52;1.10;;;11.90;99.90;;;;;;5132470;27;20573;-72
2020/12/04 00:38:36;;;;;;;2.42;1.13;;;12.00;99.90;;;;;;5130370;27;20047;-73
2020/12/04 00:41:03;;;;;;;1.75;1.10;;;11.90;99.90;;;;;;5131303;27;20024;-73
2020/12/04 00:43:29;;;;;;;3.30;1.55;;;12.10;99.90;;;;;;5131347;27;20084;-72
2020/12/04 00:45:54;;;;;;;1.88;1.13;;;12.20;99.90;;;;;;5132169;27;20027;-70
2020/12/04 00:48:20;;;;;;;2.65;1.00;;;12.10;99.90;;;;;;5130963;27;20047;-73
2020/12/04 00:50:46;;;;;;;1.83;1.10;;;12.10;99.90;;;;;;5131409;27;20019;-74
2020/12/04 00:53:12;;;;;;;3.17;1.30;;;12.20;99.90;;;;;;5132588;27;20023;-72
2020/12/04 00:55:37;;;;;;;1.17;0.90;;;12.30;99.90;;;;;;5128356;28;20030;-73
2020/12/04 00:58:04;;;;;;;1.83;1.20;;;12.20;99.90;;;;;;5126489;28;20143;-74
2020/12/04 01:00:30;;;;;;;1.48;0.82;;;12.00;99.90;;;;;;5107935;28;20080;-71
2020/12/04 01:02:56;;;;;;;1.92;1.10;;;12.00;99.90;;;;;;5129907;28;20023;-72
2020/12/04 01:05:21;;;;;;;1.67;1.00;;;12.10;99.90;;;;;;5131585;27;20027;-72
2020/12/04 01:07:47;;;;;;;2.45;0.93;;;12.20;99.90;;;;;;5132225;28;20027;-72
2020/12/04 01:10:12;;;;;;;2.67;0.80;;;12.20;99.90;;;;;;5131326;27;20036;-72
2020/12/04 01:12:42;;;;;;;1.45;0.82;;;12.20;99.90;;;;;;5130161;27;20382;-73
2020/12/04 01:15:08;;;;;;;3.22;0.90;;;12.20;99.90;;;;;;5132508;27;20080;-71
2020/12/04 01:17:34;;;;;;;2.53;0.82;;;12.30;99.90;;;;;;5131217;27;20079;-72
2020/12/04 01:19:59;;;;;;;1.58;1.00;;;12.20;99.90;;;;;;5132137;27;20428;-73
2020/12/04 01:22:25;;;;;;;1.63;1.10;;;12.20;99.90;;;;;;5130792;27;20037;-71
2020/12/04 01:24:51;;;;;;;0.88;0.80;;;12.20;99.90;;;;;;5133569;27;20110;-72
2020/12/04 01:27:17;;;;;;;2.25;1.00;;;12.30;99.90;;;;;;5133794;27;20050;-72
2020/12/04 01:29:44;;;;;;;1.10;0.90;;;12.10;99.90;;;;;;5134773;27;20019;-72
2020/12/04 01:32:10;;;;;;;2.05;0.90;;;11.90;99.90;;;;;;5133933;27;20027;-72
2020/12/04 01:34:35;;;;;;;1.58;0.80;;;11.80;99.90;;;;;;5135883;27;20031;-71
2020/12/04 01:37:01;;;;;;;0.77;0.65;;;11.70;99.90;;;;;;5134375;27;20041;-71
2020/12/04 01:39:26;;;;;;;2.47;0.90;;;11.80;99.90;;;;;;5135650;27;20063;-71
2020/12/04 01:41:52;;;;;;;3.95;0.90;;;11.90;99.90;;;;;;5132163;27;20102;-71
2020/12/04 01:44:18;;;;;;;2.08;0.80;;;12.00;99.90;;;;;;5134914;27;20038;-71
2020/12/04 01:46:43;;;;;;;2.22;0.82;;;11.90;99.90;;;;;;5132039;27;20103;-71
2020/12/04 01:49:09;;;;;;;1.75;0.70;;;11.80;99.90;;;;;;5135335;27;20586;-71
2020/12/04 01:51:36;;;;;;;1.40;0.90;;;11.70;99.90;;;;;;5132661;27;20484;-71
2020/12/04 01:54:03;;;;;;;0.50;0.50;;;11.70;99.90;;;;;;5135402;27;20428;-71
2020/12/04 01:56:37;;;;;;;1.25;0.90;;;11.60;99.90;;;;;;5130661;27;20031;-73
2020/12/04 01:59:06;;;;;;;0.82;0.50;;;11.80;99.90;;;;;;5121028;27;20415;-73
2020/12/04 02:01:40;;;;;;;1.85;0.68;;;11.60;99.90;;;;;;5128067;27;20020;-74
2020/12/04 02:04:11;;;;;;;4.40;0.90;;;11.60;99.90;;;;;;5125679;27;20035;-74
2020/12/04 02:06:49;;;;;;;1.27;0.60;;;11.50;99.90;;;;;;5126503;27;20038;-73
2020/12/04 02:09:25;;;;;;;1.60;0.52;;;11.40;99.90;;;;;;5134730;27;20019;-74
2020/12/04 02:11:54;;;;;;;2.55;0.70;;;11.40;99.90;;;;;;5128574;27;20051;-72
2020/12/04 02:14:21;;;;;;;0.65;0.50;;;11.40;99.90;;;;;;5135059;27;20478;-71
2020/12/04 02:16:47;;;;;;;1.25;0.60;;;11.30;99.90;;;;;;5131798;27;20023;-70
2020/12/04 02:19:13;;;;;;;1.13;0.68;;;11.20;99.90;;;;;;5133722;27;20108;-69
2020/12/04 02:21:41;;;;;;;1.00;0.70;;;11.40;99.90;;;;;;5133460;27;20065;-70
2020/12/04 02:24:07;;;;;;;2.05;0.77;;;11.50;99.90;;;;;;5134745;27;20034;-69
2020/12/04 02:26:34;;;;;;;1.38;0.70;;;11.60;99.90;;;;;;5133988;27;20027;-69
2020/12/04 02:29:03;;;;;;;2.00;0.70;;;11.40;99.90;;;;;;5132732;27;20394;-69
2020/12/04 02:31:29;;;;;;;3.00;0.75;;;11.40;99.90;;;;;;5127724;27;20031;-69
2020/12/04 02:33:55;;;;;;;0.90;0.50;;;11.30;99.90;;;;;;5114220;28;20024;-71
2020/12/04 02:36:21;;;;;;;1.05;0.50;;;11.20;99.90;;;;;;5118531;27;20356;-71
2020/12/04 02:38:46;;;;;;;0.95;0.63;;;11.10;99.90;;;;;;5132349;27;20043;-71
2020/12/04 02:41:13;;;;;;;4.68;0.95;;;11.00;99.90;;;;;;5133540;27;20083;-72
2020/12/04 02:43:39;;;;;;;2.88;0.82;;;11.00;99.90;;;;;;5133487;27;20023;-73
2020/12/04 02:46:07;;;;;;;1.67;0.75;;;10.90;99.90;;;;;;5132963;27;20121;-73
2020/12/04 02:48:33;;;;;;;2.25;0.70;;;10.80;99.90;;;;;;5134116;27;20047;-72
2020/12/04 02:50:58;;;;;;;2.30;0.70;;;10.80;99.90;;;;;;5133779;27;20030;-72
2020/12/04 02:53:24;;;;;;;3.03;0.90;;;10.80;99.90;;;;;;5134058;27;20027;-71
2020/12/04 02:55:50;;;;;;;3.05;0.70;;;10.70;99.90;;;;;;5130996;27;20111;-72
2020/12/04 02:58:16;;;;;;;2.35;0.80;;;10.80;99.90;;;;;;5130173;27;20043;-72
2020/12/04 03:00:42;;;;;;;2.83;0.80;;;10.80;99.90;;;;;;5131917;27;20023;-72
2020/12/04 03:03:07;;;;;;;3.92;0.75;;;10.90;99.90;;;;;;5132584;27;20453;-71
2020/12/04 03:05:33;;;;;;;5.15;0.95;;;10.80;99.90;;;;;;5133771;27;20022;-72
2020/12/04 03:07:59;;;;;;;2.80;0.75;;;10.90;99.90;;;;;;5133151;27;20038;-72
2020/12/04 03:10:24;;;;;;;3.55;0.85;;;10.80;99.90;;;;;;5132500;27;20019;-71
2020/12/04 03:12:50;;;;;;;2.30;0.80;;;10.90;99.90;;;;;;5132738;27;20462;-72
2020/12/04 03:15:16;;;;;;;2.35;0.70;;;10.80;99.90;;;;;;5133695;27;20030;-71
2020/12/04 03:17:41;;;;;;;3.67;1.08;;;10.80;99.90;;;;;;5132336;27;20033;-71
2020/12/04 03:20:07;;;;;;;3.08;0.90;;;10.70;99.90;;;;;;5132638;27;20110;-72
2020/12/04 03:22:32;;;;;;;2.33;0.70;;;10.70;99.90;;;;;;5133575;27;20058;-72
2020/12/04 03:24:58;;;;;;;3.67;0.90;;;10.60;99.90;;;;;;5131040;27;20027;-72
2020/12/04 03:27:24;;;;;;;3.08;0.93;;;10.50;99.90;;;;;;5133707;27;20027;-73
2020/12/04 03:29:50;;;;;;;2.55;0.73;;;10.30;99.90;;;;;;5131195;27;20084;-74
2020/12/04 03:32:15;;;;;;;1.55;0.77;;;10.30;99.90;;;;;;5132720;27;20404;-71
2020/12/04 03:34:42;;;;;;;4.28;0.70;;;10.10;99.90;;;;;;5132567;27;20110;-72
2020/12/04 03:37:08;;;;;;;3.65;0.55;;;10.00;99.90;;;;;;5133391;27;20019;-72
2020/12/04 03:39:35;;;;;;;0.90;0.40;;;9.80;99.90;;;;;;5130878;27;20027;-73
2020/12/04 03:42:01;;;;;;;2.55;0.50;;;9.50;99.90;;;;;;5131653;27;20027;-72
2020/12/04 03:44:27;;;;;;;2.38;0.60;;;9.40;99.90;;;;;;5133220;27;20023;-71
2020/12/04 03:46:52;;;;;;;2.33;0.57;;;9.30;99.90;;;;;;5130290;27;20084;-72
2020/12/04 03:49:19;;;;;;;3.08;0.50;;;9.30;99.90;;;;;;5132374;27;20043;-73
2020/12/04 03:51:45;;;;;;;2.40;0.55;;;9.20;99.90;;;;;;5128753;27;20031;-72
2020/12/04 03:54:14;;;;;;;1.35;0.50;;;9.20;99.90;;;;;;5132229;27;20027;-72
2020/12/04 03:56:40;;;;;;;0.50;0.38;;;9.00;99.90;;;;;;5126194;27;20462;-73
2020/12/04 03:59:06;;;;;;;1.75;0.40;;;9.10;99.90;;;;;;5130673;27;20035;-73
2020/12/04 04:01:32;;;;;;;1.08;0.50;;;9.00;99.90;;;;;;5126891;27;20467;-73
2020/12/04 04:03:58;;;;;;;2.47;0.60;;;9.00;99.90;;;;;;5131800;27;20023;-71
2020/12/04 04:06:25;;;;;;;1.63;0.40;;;8.90;99.90;;;;;;5132873;27;20019;-72
2020/12/04 04:08:52;;;;;;;0.80;0.52;;;9.10;99.90;;;;;;5132018;27;20029;-73
2020/12/04 04:11:18;;;;;;;0.50;0.40;;;9.00;99.90;;;;;;5130974;27;20360;-73
2020/12/04 04:13:44;;;;;;;1.00;0.40;;;9.10;99.90;;;;;;5132520;27;20027;-72
2020/12/04 04:16:09;;;;;;;1.38;0.40;;;9.00;99.90;;;;;;5131910;27;20023;-72
2020/12/04 04:18:37;;;;;;;0.47;0.40;;;9.10;99.90;;;;;;5132358;27;20127;-71
2020/12/04 04:21:08;;;;;;;0.98;0.40;;;9.00;99.90;;;;;;5130126;27;20023;-73
2020/12/04 04:23:33;;;;;;;0.50;0.40;;;8.90;99.90;;;;;;5112020;28;20027;-72
2020/12/04 04:25:59;;;;;;;0.25;0.20;;;9.00;99.90;;;;;;5118942;27;20022;-72
2020/12/04 04:28:24;;;;;;;0.50;0.40;;;9.00;99.90;;;;;;5131119;27;20031;-74
2020/12/04 04:30:51;;;;;;;1.45;0.30;;;8.90;99.90;;;;;;5131672;27;20019;-72
2020/12/04 04:33:16;;;;;;;0.35;0.30;;;8.80;99.90;;;;;;5131838;27;20023;-72
2020/12/04 04:35:42;;;;;;;1.15;0.40;;;8.90;99.90;;;;;;5130777;27;20394;-72
2020/12/04 04:38:08;;;;;;;2.38;0.40;;;8.90;99.90;;;;;;5132494;28;20027;-72
2020/12/04 04:40:34;;;;;;;0.30;0.30;;;8.90;99.90;;;;;;5130630;27;20054;-72
2020/12/04 04:43:10;;;;;;;0.50;0.50;;;8.80;99.90;;;;;;5131366;27;20047;-71
2020/12/04 04:45:43;;;;;;;0.32;0.32;;;8.70;99.90;;;;;;5130238;27;20035;-73
2020/12/04 04:48:12;;;;;;;0.55;0.35;;;8.70;99.90;;;;;;5131109;27;20509;-71
2020/12/04 04:50:42;;;;;;;0.70;0.40;;;8.70;99.90;;;;;;5130118;28;20410;-71
2020/12/04 04:53:09;;;;;;;0.30;0.30;;;8.60;99.90;;;;;;5130310;27;20063;-71
2020/12/04 04:55:36;;;;;;;0.75;0.50;;;8.50;99.90;;;;;;5127236;28;20058;-72
2020/12/04 04:58:05;;;;;;;0.43;0.40;;;8.60;99.90;;;;;;5122156;27;20071;-72
2020/12/04 05:00:32;;;;;;;0.30;0.30;;;8.50;99.90;;;;;;5130746;27;20431;-73
2020/12/04 05:02:57;;;;;;;1.35;0.40;;;8.40;99.90;;;;;;5132851;27;20121;-73
2020/12/04 05:05:43;;;;;;;0.40;0.40;;;8.40;99.90;;;;;;5135305;27;20023;-72
2020/12/04 05:08:13;;;;;;;0.40;0.30;;;8.30;99.90;;;;;;5135207;27;20030;-72
2020/12/04 05:10:38;;;;;;;0.82;0.40;;;8.30;99.90;;;;;;5134152;27;20443;-73
2020/12/04 05:13:04;;;;;;;1.23;0.43;;;8.40;99.90;;;;;;5134594;27;20046;-73
2020/12/04 05:15:31;;;;;;;0.40;0.40;;;8.20;99.90;;;;;;5136561;27;20027;-73
2020/12/04 05:18:03;;;;;;;0.43;0.32;;;8.20;99.90;;;;;;5134904;27;20081;-71
2020/12/04 05:20:29;;;;;;;0.40;0.40;;;8.10;99.90;;;;;;5135054;27;20076;-70
2020/12/04 05:22:56;;;;;;;0.40;0.40;;;8.10;99.90;;;;;;5135822;27;20102;-70
2020/12/04 05:25:22;;;;;;;1.15;0.40;;;8.00;99.90;;;;;;5135047;27;20027;-69
2020/12/04 05:27:48;;;;;;;2.40;0.63;;;8.00;99.90;;;;;;5115485;28;20384;-72
2020/12/04 05:30:26;;;;;;;0.40;0.40;;;7.90;99.90;;;;;;5126633;27;20035;-73
2020/12/04 05:33:04;;;;;;;0.40;0.40;;;7.90;99.90;;;;;;5135242;27;20120;-73
2020/12/04 05:35:30;;;;;;;0.68;0.40;;;7.90;99.90;;;;;;5116048;27;20107;-73
2020/12/04 05:38:12;;;;;;;0.40;0.40;;;7.80;99.90;;;;;;5133683;27;20519;-73
2020/12/04 05:40:40;;;;;;;0.60;0.60;;;7.80;99.90;;;;;;5134209;27;20023;-73
2020/12/04 05:43:07;;;;;;;0.45;0.32;;;7.90;99.90;;;;;;5134737;27;20058;-72
2020/12/04 05:45:33;;;;;;;0.50;0.50;;;7.80;99.90;;;;;;5132265;27;20106;-74
2020/12/04 05:47:59;;;;;;;1.83;0.60;;;7.70;99.90;;;;;;5135097;27;20495;-71
2020/12/04 05:50:25;;;;;;;1.38;0.30;;;7.70;99.90;;;;;;5134385;27;20245;-72
2020/12/04 05:52:51;;;;;;;0.50;0.50;;;7.60;99.90;;;;;;5133729;27;20386;-72
2020/12/04 05:55:17;;;;;;;2.22;0.52;;;7.60;99.90;;;;;;5135671;27;20027;-71
2020/12/04 05:57:46;;;;;;;1.58;0.43;;;7.60;99.90;;;;;;5128655;27;20478;-71
2020/12/04 06:00:15;;;;;;;0.73;0.50;;;7.60;99.90;;;;;;5131721;27;20035;-72
2020/12/04 06:02:41;;;;;;;1.45;0.45;;;7.50;99.90;;;;;;5127595;27;20967;-72
2020/12/04 06:05:11;;;;;;;0.50;0.50;;;7.50;99.90;;;;;;5135034;27;20023;-73
2020/12/04 06:07:38;;;;;;;0.70;0.60;;;7.50;99.90;;;;;;5132670;27;20034;-72
2020/12/04 06:10:04;;;;;;;0.60;0.60;;;7.50;99.90;;;;;;5131229;27;20027;-73
2020/12/04 06:12:30;;;;;;;0.85;0.60;;;7.50;99.90;;;;;;5133989;27;20034;-72
2020/12/04 06:15:19;;;;;;;1.23;0.70;;;7.50;99.90;;;;;;5134737;27;20046;-72
2020/12/04 06:17:45;;;;;;;0.85;0.63;;;7.50;99.90;;;;;;5135187;27;20085;-70
2020/12/04 06:20:20;;;;;;;1.40;0.73;;;7.50;99.90;;;;;;5132357;27;20038;-72
2020/12/04 06:23:18;;;;;;;1.30;0.75;;;7.50;99.90;;;;;;5114228;28;20036;-70
2020/12/04 06:26:05;;;;;;;1.25;0.70;;;7.50;99.90;;;;;;5075301;28;20487;-70
2020/12/04 06:28:34;;;;;;;1.10;0.80;;;7.50;99.90;;;;;;5090308;28;20485;-69
2020/12/04 06:31:03;;;;;;;1.13;0.70;;;7.60;99.90;;;;;;5090279;28;20050;-69
2020/12/04 06:33:31;;;;;;;2.15;0.70;;;7.50;99.90;;;;;;5081938;28;20033;-69
2020/12/04 06:35:57;;;;;;;1.40;0.82;;;7.60;99.90;;;;;;5075146;28;20101;-72
2020/12/04 06:38:38;;;;;;;1.33;0.68;;;7.60;99.90;;;;;;5085448;28;20043;-73
2020/12/04 06:41:43;;;;;;;1.85;0.60;;;7.70;99.90;;;;;;5087159;28;20028;-72
2020/12/04 06:44:15;;;;;;;;;;;7.70;99.90;;;;;;5067850;28;20051;-71
2020/12/04 06:46:55;;;;;;;1.48;0.90;;;7.80;99.90;;;;;;5070665;28;19966;-70
2020/12/04 06:49:35;;;;;;;1.45;1.10;;;7.80;99.90;;;;;;5071811;28;20404;-69
2020/12/04 06:52:03;;;;;;;3.40;0.95;;;7.80;99.90;;;;;;5082554;28;20042;-70
2020/12/04 06:54:31;;;;;;;2.80;1.00;;;7.40;99.90;;;;;;5089208;28;20028;-71
2020/12/04 06:56:57;;;;;;;2.45;0.70;;;7.00;99.90;;;;;;5089670;28;20027;-72
2020/12/04 06:59:24;;;;;;;2.88;1.00;;;7.10;99.90;;;;;;5090282;28;20040;-72
2020/12/04 07:01:50;;;;;;;2.03;1.02;;;7.00;99.90;;;;;;5106688;28;20479;-70
2020/12/04 07:04:16;;;;;;;2.92;0.93;;;7.10;99.90;;;;;;5118859;27;20028;-66
2020/12/04 07:06:42;;;;;;;3.90;1.00;;;8.00;99.90;;;;;;5133645;27;20623;-67
2020/12/04 07:09:08;;;;;;;1.17;1.00;;;8.70;99.90;;;;;;5133568;27;20084;-76
2020/12/04 07:11:34;;;;;;;3.90;1.33;;;7.80;99.90;;;;;;5133045;27;20027;-74
2020/12/04 07:13:59;;;;;;;2.10;0.82;;;7.50;99.90;;;;;;5133411;27;20102;-70
2020/12/04 07:16:27;;;;;;;1.17;1.00;;;7.40;99.90;;;;;;5133522;27;20486;-72
2020/12/04 07:18:53;;;;;;;1.58;1.10;;;7.40;99.90;;;;;;5133295;27;20039;-73
2020/12/04 07:21:26;;;;;;;1.83;1.20;;;7.30;99.90;;;;;;5115358;27;20024;-72
2020/12/04 07:23:53;;;;;;;1.38;1.00;;;7.20;99.90;;;;;;5114296;28;20034;-71
2020/12/04 07:26:20;;;;;;;2.17;1.10;;;7.20;99.90;;;;;;5112606;28;20031;-70
2020/12/04 07:28:46;;;;;;;1.85;1.02;;;7.20;99.90;;;;;;5112504;28;20038;-69
2020/12/04 07:31:21;;;;;;;2.33;1.17;;;7.30;99.90;;;;;;5112651;28;20111;-70
2020/12/04 07:33:51;;;;;;;3.00;1.23;;;7.30;99.90;;;;;;5112880;28;20490;-69
2020/12/04 07:36:17;;;;;;;1.80;1.20;;;7.10;99.90;;;;;;5114947;27;20033;-73
2020/12/04 07:38:57;;;;;;;1.92;0.90;;;7.10;99.90;;;;;;5132172;27;20383;-70
2020/12/04 07:41:41;;;;;;;4.45;1.10;;;7.00;99.90;;;;;;5132963;27;20035;-73
2020/12/04 07:44:08;;;;;;;4.38;1.10;;;8.00;99.90;;;;;;5133263;27;20024;-74
2020/12/04 07:46:35;;;;;;;2.22;1.20;;;7.30;99.90;;;;;;5132575;27;20047;-77
2020/12/04 07:49:11;;;;;;;2.15;0.90;;;7.10;99.90;;;;;;5132412;27;20039;-74
2020/12/04 07:51:41;;;;;;;1.83;0.95;;;7.00;99.90;;;;;;5132884;27;20085;-76
2020/12/04 07:54:23;;;;;;;1.27;0.80;;;7.00;99.90;;;;;;5132854;27;20490;-73
2020/12/04 07:56:55;;;;;;;3.42;0.85;;;6.80;99.90;;;;;;5132804;27;20092;-73
2020/12/04 07:59:28;;;;;;;1.52;0.90;;;6.90;99.90;;;;;;5132597;27;20039;-73
2020/12/04 08:01:54;;;;;;;2.78;1.05;;;6.80;99.90;;;;;;5120905;27;20016;-73
2020/12/04 08:04:20;;;;;;;1.17;0.98;;;6.80;99.90;;;;;;5115978;27;20487;-73
2020/12/04 08:06:47;;;;;;;2.15;1.00;;;6.80;99.90;;;;;;5112519;28;20020;-73
2020/12/04 08:09:14;;;;;;;1.77;0.90;;;6.80;99.90;;;;;;5112209;28;20107;-73
2020/12/04 08:11:54;;;;;;;1.20;1.08;;;6.80;99.90;;;;;;5127810;27;20023;-73
2020/12/04 08:14:27;;;;;;;5.00;1.10;;;6.80;99.90;;;;;;5112079;28;20502;-73
2020/12/04 08:16:54;;;;;;;2.53;1.00;;;6.80;99.90;;;;;;5112082;28;20413;-73
2020/12/04 08:19:29;;;;;;;1.08;0.90;;;6.90;99.90;;;;;;5116603;27;20043;-75
2020/12/04 08:21:59;;;;;;;2.72;0.82;;;6.90;99.90;;;;;;5120590;27;20024;-73
2020/12/04 08:24:36;;;;;;;2.58;1.23;;;7.00;99.90;;;;;;5120013;27;20027;-73
2020/12/04 08:27:03;;;;;;;1.38;0.90;;;7.00;99.90;;;;;;5121441;27;20038;-75
2020/12/04 08:29:29;;;;;;;1.05;0.82;;;7.00;99.90;;;;;;5116897;27;20012;-75
2020/12/04 08:32:12;;;;;;;2.45;0.95;;;7.00;99.90;;;;;;5121305;27;20023;-77
2020/12/04 08:34:38;;;;;;;1.10;0.80;;;7.00;99.90;;;;;;5120787;27;20388;-73
2020/12/04 08:37:10;;;;;;;1.42;0.93;;;7.00;99.90;;;;;;5128959;27;20387;-73
2020/12/04 08:39:42;;;;;;;1.65;1.00;;;6.90;99.90;;;;;;5132455;27;20039;-72
2020/12/04 08:42:15;;;;;;;2.30;1.08;;;7.00;99.90;;;;;;5131929;27;20044;-73
2020/12/04 08:44:53;;;;;;;1.35;0.80;;;7.00;99.90;;;;;;5132134;27;20020;-72
2020/12/04 08:47:40;;;;;;;3.83;1.10;;;6.90;99.90;;;;;;5131955;27;20035;-72
2020/12/04 08:50:15;;;;;;;1.65;0.80;;;6.90;99.90;;;;;;5132533;27;20432;-72
2020/12/04 08:52:45;;;;;;;1.92;0.70;;;6.90;99.90;;;;;;5132077;27;20106;-73
2020/12/04 08:55:22;;;;;;;0.80;0.80;;;6.90;99.90;;;;;;5132075;27;20015;-74
2020/12/04 08:57:50;;;;;;;2.28;0.80;;;6.90;99.90;;;;;;5131800;27;20027;-73
2020/12/04 09:00:19;;;;;;;1.55;0.75;;;6.90;99.90;;;;;;5131740;27;20035;-74
2020/12/04 09:02:45;;;;;;;0.90;0.77;;;6.90;99.90;;;;;;5132341;27;20016;-74
2020/12/04 09:05:13;;;;;;;1.00;0.70;;;6.80;99.90;;;;;;5131936;27;20034;-74
2020/12/04 09:07:39;;;;;;;0.70;0.70;;;6.90;99.90;;;;;;5132373;27;20023;-74
2020/12/04 09:10:06;;;;;;;0.70;0.70;;;6.70;99.90;;;;;;5131922;27;20382;-73
2020/12/04 09:12:32;;;;;;;1.98;1.05;;;6.70;99.90;;;;;;5131858;27;20023;-73
2020/12/04 09:14:58;;;;;;;1.38;1.00;;;6.80;99.90;;;;;;5131699;27;20480;-73
2020/12/04 09:17:24;;;;;;;1.15;0.95;;;6.90;99.90;;;;;;5132020;27;20092;-73
2020/12/04 09:19:49;;;;;;;0.70;0.70;;;6.90;99.90;;;;;;5130677;28;20082;-74
2020/12/04 09:22:16;;;;;;;1.25;0.88;;;6.90;99.90;;;;;;5132038;27;20019;-73
2020/12/04 09:24:42;;;;;;;2.13;0.90;;;6.90;99.90;;;;;;5131452;27;20071;-73
2020/12/04 09:27:08;;;;;;;1.90;0.82;;;6.80;99.90;;;;;;5131597;27;20034;-73
2020/12/04 09:29:35;;;;;;;1.20;0.90;;;6.90;99.90;;;;;;5131630;27;20023;-73
2020/12/04 09:32:16;;;;;;;1.20;0.75;;;6.90;99.90;;;;;;5131987;27;20028;-73
2020/12/04 09:34:47;;;;;;;1.38;0.82;;;7.00;99.90;;;;;;5131784;27;20023;-74
2020/12/04 09:37:25;;;;;;;1.45;0.82;;;7.00;99.90;;;;;;5131696;27;20275;-74
2020/12/04 09:39:59;;;;;;;1.25;0.80;;;7.10;99.90;;;;;;5132102;27;20066;-71
2020/12/04 09:42:26;;;;;;;2.00;0.82;;;7.20;99.90;;;;;;5131671;27;20107;-73
2020/12/04 09:44:53;;;;;;;2.60;0.80;;;7.20;99.90;;;;;;5125318;27;20046;-73
2020/12/04 09:47:19;;;;;;;2.63;0.75;;;7.20;99.90;;;;;;5126170;27;20073;-72
2020/12/04 09:49:46;;;;;;;1.45;0.70;;;7.10;99.90;;;;;;5135543;27;20042;-75
2020/12/04 09:52:13;;;;;;;3.25;0.80;;;7.10;99.90;;;;;;5135268;27;20466;-79
2020/12/04 09:54:40;;;;;;;2.17;0.88;;;7.20;99.90;;;;;;5130710;27;20042;-71
2020/12/04 09:57:08;;;;;;;1.08;0.80;;;7.20;99.90;;;;;;5132962;27;20431;-73
2020/12/04 09:59:35;;;;;;;2.80;1.08;;;7.30;99.90;;;;;;5135032;27;20084;-73
2020/12/04 10:02:02;;;;;;;1.95;0.77;;;7.20;99.90;;;;;;5133922;27;20026;-73
2020/12/04 10:04:28;;;;;;;2.55;0.80;;;7.30;99.90;;;;;;5134670;27;20058;-74
2020/12/04 10:06:54;;;;;;;1.90;0.90;;;7.30;99.90;;;;;;5135077;27;20054;-73
2020/12/04 10:09:21;;;;;;;1.30;0.80;;;7.30;99.90;;;;;;5135134;27;20023;-74
2020/12/04 10:11:48;;;;;;;1.75;0.73;;;7.40;99.90;;;;;;5134786;27;20066;-72
2020/12/04 10:14:14;;;;;;;2.67;0.80;;;7.40;99.90;;;;;;5134974;27;20019;-72
2020/12/04 10:16:41;;;;;;;1.40;0.80;;;7.50;99.90;;;;;;5134766;27;20022;-74
2020/12/04 10:19:07;;;;;;;1.23;0.88;;;7.40;99.90;;;;;;5134752;27;20031;-73
2020/12/04 10:21:34;;;;;;;2.20;1.10;;;7.50;99.90;;;;;;5134647;27;20023;-73
2020/12/04 10:23:59;;;;;;;1.52;0.80;;;7.50;99.90;;;;;;5134640;27;20035;-73
2020/12/04 10:26:25;;;;;;;2.40;0.90;;;7.60;99.90;;;;;;5134596;27;20049;-73
2020/12/04 10:28:51;;;;;;;2.70;0.80;;;7.70;99.90;;;;;;5134710;27;20034;-73
2020/12/04 10:31:16;;;;;;;1.90;0.70;;;7.50;99.90;;;;;;5134601;27;20023;-73
2020/12/04 10:33:42;;;;;;;1.70;0.70;;;7.50;99.90;;;;;;5134585;27;20056;-73
2020/12/04 10:36:08;;;;;;;1.38;0.68;;;7.50;99.90;;;;;;5134443;27;20467;-73
2020/12/04 10:38:34;;;;;;;1.27;0.75;;;7.60;99.90;;;;;;5133498;27;20540;-74
2020/12/04 10:41:00;;;;;;;2.03;0.80;;;7.70;99.90;;;;;;5134055;27;20019;-74
2020/12/04 10:43:26;;;;;;;1.58;0.85;;;7.70;99.90;;;;;;5134218;27;20031;-74
2020/12/04 10:45:52;;;;;;;0.85;0.65;;;7.80;99.90;;;;;;5134162;27;20025;-74
2020/12/04 10:48:18;;;;;;;1.67;0.80;;;7.70;99.90;;;;;;5134137;27;20035;-74
2020/12/04 10:50:45;;;;;;;2.35;0.95;;;7.70;99.90;;;;;;5134442;27;20083;-73
2020/12/04 10:53:12;;;;;;;1.60;1.00;;;7.80;99.90;;;;;;5134035;27;20023;-73
2020/12/04 10:55:37;;;;;;;2.63;0.90;;;7.80;99.90;;;;;;5133874;27;20146;-74
2020/12/04 10:58:04;;;;;;;1.30;0.82;;;7.90;99.90;;;;;;5134039;27;20106;-74
2020/12/04 11:00:30;;;;;;;1.38;0.80;;;7.80;99.90;;;;;;5133879;27;20023;-74
2020/12/04 11:05:45;;;;;;;2.92;0.80;;;7.90;99.90;;;;;;5103194;28;20134;-74
2020/12/04 11:08:10;;;;;;;2.78;1.05;;;7.70;99.90;;;;;;5110188;28;20044;-81
2020/12/04 11:10:36;;;;;;;1.63;1.00;;;7.70;99.90;;;;;;5110662;28;20034;-74
2020/12/04 11:13:03;;;;;;;1.85;1.10;;;7.80;99.90;;;;;;5096208;28;20046;-74
2020/12/04 11:15:28;;;;;;;2.10;0.90;;;7.80;99.90;;;;;;5089917;28;20028;-74
2020/12/04 11:17:55;;;;;;;1.88;0.98;;;7.80;99.90;;;;;;5090115;28;20082;-72
2020/12/04 11:20:22;;;;;;;1.70;0.60;;;7.70;99.90;;;;;;5090186;28;20024;-73
2020/12/04 11:22:48;;;;;;;2.28;0.73;;;7.70;99.90;;;;;;5090024;28;20098;-73
2020/12/04 11:25:14;;;;;;;1.20;0.90;;;7.80;99.90;;;;;;5094598;28;20027;-72
2020/12/04 11:27:47;;;;;;;2.55;1.17;;;7.60;99.90;;;;;;5110498;28;20398;-72
2020/12/04 11:30:16;;;;;;;2.97;1.07;;;7.70;99.90;;;;;;5110199;28;20479;-73
2020/12/04 11:32:43;;;;;;;3.75;1.10;;;7.50;99.90;;;;;;5110394;28;20266;-74
2020/12/04 11:35:11;;;;;;;1.52;0.63;;;7.50;99.90;;;;;;5110187;28;20035;-74
2020/12/04 11:37:41;;;;;;;1.65;0.80;;;7.50;99.90;;;;;;5110241;28;20301;-74
2020/12/04 11:40:08;;;;;;;3.42;0.85;;;7.70;99.90;;;;;;5110143;28;20035;-73
2020/12/04 11:42:37;;;;;;;1.80;0.93;;;7.60;99.90;;;;;;5109636;28;20059;-73
2020/12/04 11:45:04;;;;;;;1.58;1.00;;;7.70;99.90;;;;;;5121717;27;20083;-73
2020/12/04 11:47:29;;;;;;;5.22;1.13;;;7.60;99.90;;;;;;5132839;27;20019;-73
2020/12/04 11:49:55;;;;;;;3.75;0.80;;;7.60;99.90;;;;;;5133203;27;20083;-73
2020/12/04 11:52:21;;;;;;;1.80;0.90;;;7.60;99.90;;;;;;5133223;27;20051;-73
2020/12/04 11:54:47;;;;;;;1.50;0.90;;;7.60;99.90;;;;;;5133049;27;20102;-74
2020/12/04 11:57:13;;;;;;;2.15;0.80;;;7.60;99.90;;;;;;5132691;27;20019;-74
2020/12/04 11:59:39;;;;;;;2.00;0.80;;;7.60;99.90;;;;;;5132972;27;20370;-72
2020/12/04 12:02:06;;;;;;;2.08;0.90;;;7.50;99.90;;;;;;5132356;27;20494;-73
2020/12/04 12:04:32;;;;;;;2.22;1.00;;;7.40;99.90;;;;;;5132616;27;20027;-73
2020/12/04 12:06:57;;;;;;;1.60;0.85;;;7.30;99.90;;;;;;5132691;27;20413;-73
2020/12/04 12:09:23;;;;;;;2.85;1.05;;;7.30;99.90;;;;;;5132306;27;20034;-73
2020/12/04 12:11:49;;;;;;;5.88;1.38;;;7.30;99.90;;;;;;5132595;27;20043;-74
2020/12/04 12:14:14;;;;;;;2.35;1.05;;;7.30;99.90;;;;;;5132311;27;20050;-76
2020/12/04 12:16:46;;;;;;;1.90;0.90;;;7.30;99.90;;;;;;5132208;27;20027;-74
2020/12/04 12:19:13;;;;;;;3.60;1.15;;;7.20;99.90;;;;;;5132075;27;20092;-74
2020/12/04 12:21:43;;;;;;;2.28;1.52;;;7.10;99.90;;;;;;5132060;27;20046;-73
2020/12/04 12:24:10;;;;;;;2.95;0.98;;;7.00;99.90;;;;;;5132126;27;20561;-79
2020/12/04 12:26:36;;;;;;;2.65;0.90;;;7.10;99.90;;;;;;5131964;27;20118;-75
2020/12/04 12:29:02;;;;;;;4.60;1.42;;;7.10;99.90;;;;;;5132018;27;20102;-77
2020/12/04 12:31:28;;;;;;;1.83;1.10;;;7.20;99.90;;;;;;5132127;27;20027;-73
2020/12/04 12:33:54;;;;;;;2.20;1.38;;;7.40;99.90;;;;;;5130123;27;20382;-73
2020/12/04 12:36:20;;;;;;;3.35;1.10;;;7.30;99.90;;;;;;5131881;27;20022;-74
2020/12/04 12:38:46;;;;;;;2.72;0.90;;;7.20;99.90;;;;;;5131979;27;20509;-73
2020/12/04 12:41:12;;;;;;;1.80;0.70;;;7.20;99.90;;;;;;5131975;27;20016;-73
2020/12/04 12:43:38;;;;;;;2.88;0.90;;;7.10;99.90;;;;;;5131603;27;20071;-74
2020/12/04 12:46:04;;;;;;;2.17;1.00;;;7.10;99.90;;;;;;5132327;27;20038;-74
2020/12/04 12:48:29;;;;;;;2.08;1.08;;;7.10;99.90;;;;;;5131497;27;20047;-75
2020/12/04 12:50:55;;;;;;;2.40;0.90;;;7.10;99.90;;;;;;5132114;27;20034;-75
2020/12/04 12:53:25;;;;;;;2.35;1.17;;;7.20;99.90;;;;;;5132057;27;20027;-75
2020/12/04 12:55:51;;;;;;;1.60;1.02;;;7.30;99.90;;;;;;5132204;27;20722;-73
2020/12/04 12:58:17;;;;;;;1.95;1.00;;;7.20;99.90;;;;;;5131428;27;20038;-73
2020/12/04 13:00:43;;;;;;;4.70;0.90;;;7.20;99.90;;;;;;5131069;27;20110;-71
2020/12/04 13:03:09;;;;;;;3.17;1.10;;;7.10;99.90;;;;;;5120871;27;20032;-73